sensor_id;sensor_type;location;lat;lon;timestamp;P1;durP1;ratioP1;P2;durP2;ratioP2
61025;SDS011;46911;32.650;-16.902;2024-03-29T00:00:36;7.82;;;1.50;;
61025;SDS011;46911;32.650;-16.902;2024-03-29T00:02:39;4.00;;;1.17;;
61025;SDS011;46911;32.650;-16.902;2024-03-29T00:04:40;3.92;;;1.02;;
61025;SDS011;46911;32.650;-16.902;2024-03-29T00:06:41;9.63;;;1.48;;
61025;SDS011;46911;32.650;-16.902;2024-03-29T00:08:45;5.13;;;1.33;;
61025;SDS011;46911;32.650;-16.902;2024-03-29T00:10:48;6.90;;;1.10;;
61025;SDS011;46911;32.650;-16.902;2024-03-29T00:12:49;10.05;;;1.30;;
61025;SDS011;46911;32.650;-16.902;2024-03-29T00:14:53;8.30;;;1.20;;
61025;SDS011;46911;32.650;-16.902;2024-03-29T00:16:57;8.38;;;1.17;;
61025;SDS011;46911;32.650;-16.902;2024-03-29T00:19:02;6.25;;;1.13;;
61025;SDS011;46911;32.650;-16.902;2024-03-29T00:21:08;5.97;;;1.25;;
61025;SDS011;46911;32.650;-16.902;2024-03-29T00:23:09;5.68;;;1.05;;
61025;SDS011;46911;32.650;-16.902;2024-03-29T00:25:12;5.97;;;1.05;;
61025;SDS011;46911;32.650;-16.902;2024-03-29T00:27:13;11.82;;;1.27;;
61025;SDS011;46911;32.650;-16.902;2024-03-29T00:29:14;7.35;;;0.90;;
61025;SDS011;46911;32.650;-16.902;2024-03-29T00:31:20;8.70;;;1.30;;
61025;SDS011;46911;32.650;-16.902;2024-03-29T00:33:23;5.72;;;1.00;;
61025;SDS011;46911;32.650;-16.902;2024-03-29T00:35:24;4.35;;;1.00;;
61025;SDS011;46911;32.650;-16.902;2024-03-29T00:37:26;7.63;;;1.00;;
61025;SDS011;46911;32.650;-16.902;2024-03-29T00:39:30;8.30;;;1.15;;
61025;SDS011;46911;32.650;-16.902;2024-03-29T00:41:33;3.80;;;1.40;;
61025;SDS011;46911;32.650;-16.902;2024-03-29T00:43:34;2.67;;;0.70;;
61025;SDS011;46911;32.650;-16.902;2024-03-29T00:45:37;5.18;;;0.90;;
61025;SDS011;46911;32.650;-16.902;2024-03-29T00:47:42;8.50;;;1.17;;
61025;SDS011;46911;32.650;-16.902;2024-03-29T00:49:48;5.10;;;1.00;;
61025;SDS011;46911;32.650;-16.902;2024-03-29T00:51:49;5.00;;;1.25;;
61025;SDS011;46911;32.650;-16.902;2024-03-29T00:53:50;4.78;;;1.05;;
61025;SDS011;46911;32.650;-16.902;2024-03-29T00:55:51;9.43;;;1.25;;
61025;SDS011;46911;32.650;-16.902;2024-03-29T00:57:57;8.70;;;1.35;;
61025;SDS011;46911;32.650;-16.902;2024-03-29T00:59:57;4.90;;;0.73;;
61025;SDS011;46911;32.650;-16.902;2024-03-29T01:02:04;14.18;;;1.33;;
61025;SDS011;46911;32.650;-16.902;2024-03-29T01:04:08;5.10;;;1.08;;
61025;SDS011;46911;32.650;-16.902;2024-03-29T01:06:09;11.32;;;1.50;;
61025;SDS011;46911;32.650;-16.902;2024-03-29T01:08:10;10.18;;;1.30;;
61025;SDS011;46911;32.650;-16.902;2024-03-29T01:10:13;6.00;;;1.40;;
61025;SDS011;46911;32.650;-16.902;2024-03-29T01:12:17;10.52;;;1.13;;
61025;SDS011;46911;32.650;-16.902;2024-03-29T01:14:19;5.40;;;0.93;;
61025;SDS011;46911;32.650;-16.902;2024-03-29T01:16:22;9.18;;;0.95;;
61025;SDS011;46911;32.650;-16.902;2024-03-29T01:18:26;14.48;;;1.77;;
61025;SDS011;46911;32.650;-16.902;2024-03-29T01:20:27;6.40;;;0.85;;
61025;SDS011;46911;32.650;-16.902;2024-03-29T01:22:30;9.38;;;1.13;;
61025;SDS011;46911;32.650;-16.902;2024-03-29T01:24:34;8.95;;;1.33;;
61025;SDS011;46911;32.650;-16.902;2024-03-29T01:26:35;7.57;;;1.27;;
61025;SDS011;46911;32.650;-16.902;2024-03-29T01:28:36;5.50;;;1.05;;
61025;SDS011;46911;32.650;-16.902;2024-03-29T01:30:39;10.38;;;1.27;;
61025;SDS011;46911;32.650;-16.902;2024-03-29T01:32:40;11.68;;;1.30;;
61025;SDS011;46911;32.650;-16.902;2024-03-29T01:34:41;7.30;;;1.23;;
61025;SDS011;46911;32.650;-16.902;2024-03-29T01:36:43;8.05;;;1.08;;
61025;SDS011;46911;32.650;-16.902;2024-03-29T01:38:50;10.88;;;1.42;;
61025;SDS011;46911;32.650;-16.902;2024-03-29T01:40:55;9.50;;;1.38;;
61025;SDS011;46911;32.650;-16.902;2024-03-29T01:42:55;5.70;;;1.10;;
61025;SDS011;46911;32.650;-16.902;2024-03-29T01:45:00;4.75;;;0.95;;
61025;SDS011;46911;32.650;-16.902;2024-03-29T01:47:03;12.88;;;1.33;;
61025;SDS011;46911;32.650;-16.902;2024-03-29T01:49:08;4.45;;;1.02;;
61025;SDS011;46911;32.650;-16.902;2024-03-29T01:51:13;4.60;;;1.05;;
61025;SDS011;46911;32.650;-16.902;2024-03-29T01:53:15;5.63;;;1.02;;
61025;SDS011;46911;32.650;-16.902;2024-03-29T01:55:18;7.65;;;1.42;;
61025;SDS011;46911;32.650;-16.902;2024-03-29T01:57:22;13.50;;;1.33;;
61025;SDS011;46911;32.650;-16.902;2024-03-29T01:59:23;11.48;;;1.48;;
61025;SDS011;46911;32.650;-16.902;2024-03-29T02:01:27;12.18;;;1.02;;
61025;SDS011;46911;32.650;-16.902;2024-03-29T02:03:31;7.18;;;2.10;;
61025;SDS011;46911;32.650;-16.902;2024-03-29T02:05:32;6.47;;;0.98;;
61025;SDS011;46911;32.650;-16.902;2024-03-29T02:07:36;7.68;;;1.05;;
61025;SDS011;46911;32.650;-16.902;2024-03-29T02:09:38;9.80;;;1.65;;
61025;SDS011;46911;32.650;-16.902;2024-03-29T02:11:39;3.42;;;0.77;;
61025;SDS011;46911;32.650;-16.902;2024-03-29T02:13:42;5.93;;;1.02;;
61025;SDS011;46911;32.650;-16.902;2024-03-29T02:15:43;3.30;;;0.93;;
61025;SDS011;46911;32.650;-16.902;2024-03-29T02:17:47;8.25;;;1.00;;
61025;SDS011;46911;32.650;-16.902;2024-03-29T02:19:50;11.60;;;1.20;;
61025;SDS011;46911;32.650;-16.902;2024-03-29T02:21:53;9.35;;;1.10;;
61025;SDS011;46911;32.650;-16.902;2024-03-29T02:24:06;5.72;;;1.23;;
61025;SDS011;46911;32.650;-16.902;2024-03-29T02:26:08;5.50;;;1.10;;
61025;SDS011;46911;32.650;-16.902;2024-03-29T02:28:09;6.45;;;0.80;;
61025;SDS011;46911;32.650;-16.902;2024-03-29T02:30:16;6.65;;;1.25;;
61025;SDS011;46911;32.650;-16.902;2024-03-29T02:32:17;5.70;;;1.10;;
61025;SDS011;46911;32.650;-16.902;2024-03-29T02:34:18;8.38;;;1.08;;
61025;SDS011;46911;32.650;-16.902;2024-03-29T02:36:19;9.98;;;1.15;;
61025;SDS011;46911;32.650;-16.902;2024-03-29T02:38:20;7.63;;;1.35;;
61025;SDS011;46911;32.650;-16.902;2024-03-29T02:40:26;7.00;;;1.17;;
61025;SDS011;46911;32.650;-16.902;2024-03-29T02:42:30;5.43;;;0.95;;
61025;SDS011;46911;32.650;-16.902;2024-03-29T02:44:32;6.70;;;1.17;;
61025;SDS011;46911;32.650;-16.902;2024-03-29T02:46:38;3.45;;;0.77;;
61025;SDS011;46911;32.650;-16.902;2024-03-29T02:48:44;4.30;;;1.05;;
61025;SDS011;46911;32.650;-16.902;2024-03-29T02:50:49;9.88;;;0.93;;
61025;SDS011;46911;32.650;-16.902;2024-03-29T02:52:55;8.68;;;1.50;;
61025;SDS011;46911;32.650;-16.902;2024-03-29T02:54:58;12.70;;;1.67;;
61025;SDS011;46911;32.650;-16.902;2024-03-29T02:57:01;7.82;;;1.05;;
61025;SDS011;46911;32.650;-16.902;2024-03-29T02:59:07;9.55;;;0.98;;
61025;SDS011;46911;32.650;-16.902;2024-03-29T03:01:08;6.63;;;0.88;;
61025;SDS011;46911;32.650;-16.902;2024-03-29T03:03:14;7.63;;;1.02;;
61025;SDS011;46911;32.650;-16.902;2024-03-29T03:05:16;10.07;;;1.10;;
61025;SDS011;46911;32.650;-16.902;2024-03-29T03:07:17;6.50;;;0.95;;
61025;SDS011;46911;32.650;-16.902;2024-03-29T03:09:37;9.02;;;1.60;;
61025;SDS011;46911;32.650;-16.902;2024-03-29T03:11:56;4.00;;;0.98;;
61025;SDS011;46911;32.650;-16.902;2024-03-29T03:14:00;8.38;;;1.40;;
61025;SDS011;46911;32.650;-16.902;2024-03-29T03:16:01;6.32;;;1.00;;
61025;SDS011;46911;32.650;-16.902;2024-03-29T03:18:08;4.63;;;1.00;;
61025;SDS011;46911;32.650;-16.902;2024-03-29T03:20:09;8.77;;;1.42;;
61025;SDS011;46911;32.650;-16.902;2024-03-29T03:22:15;12.35;;;1.08;;
61025;SDS011;46911;32.650;-16.902;2024-03-29T03:24:21;4.15;;;1.00;;
61025;SDS011;46911;32.650;-16.902;2024-03-29T03:26:24;3.72;;;1.00;;
61025;SDS011;46911;32.650;-16.902;2024-03-29T03:28:25;12.93;;;1.40;;
61025;SDS011;46911;32.650;-16.902;2024-03-29T03:30:26;4.70;;;0.90;;
61025;SDS011;46911;32.650;-16.902;2024-03-29T03:32:33;4.82;;;1.00;;
61025;SDS011;46911;32.650;-16.902;2024-03-29T03:34:34;4.63;;;0.80;;
61025;SDS011;46911;32.650;-16.902;2024-03-29T03:36:35;8.93;;;1.40;;
61025;SDS011;46911;32.650;-16.902;2024-03-29T03:38:38;7.68;;;1.70;;
61025;SDS011;46911;32.650;-16.902;2024-03-29T03:40:40;12.32;;;1.73;;
61025;SDS011;46911;32.650;-16.902;2024-03-29T03:42:41;6.00;;;1.00;;
61025;SDS011;46911;32.650;-16.902;2024-03-29T03:44:42;7.53;;;0.93;;
61025;SDS011;46911;32.650;-16.902;2024-03-29T03:46:45;6.80;;;1.35;;
61025;SDS011;46911;32.650;-16.902;2024-03-29T03:48:48;6.53;;;1.05;;
61025;SDS011;46911;32.650;-16.902;2024-03-29T03:50:49;4.95;;;1.00;;
61025;SDS011;46911;32.650;-16.902;2024-03-29T03:52:50;12.88;;;1.00;;
61025;SDS011;46911;32.650;-16.902;2024-03-29T03:54:58;5.88;;;1.15;;
61025;SDS011;46911;32.650;-16.902;2024-03-29T03:56:59;5.97;;;1.00;;
61025;SDS011;46911;32.650;-16.902;2024-03-29T03:59:00;7.30;;;1.08;;
61025;SDS011;46911;32.650;-16.902;2024-03-29T04:01:04;4.70;;;0.75;;
61025;SDS011;46911;32.650;-16.902;2024-03-29T04:03:07;4.65;;;0.77;;
61025;SDS011;46911;32.650;-16.902;2024-03-29T04:05:08;8.38;;;1.02;;
61025;SDS011;46911;32.650;-16.902;2024-03-29T04:07:12;6.93;;;1.10;;
61025;SDS011;46911;32.650;-16.902;2024-03-29T04:09:17;7.85;;;0.95;;
61025;SDS011;46911;32.650;-16.902;2024-03-29T04:11:20;4.75;;;0.80;;
61025;SDS011;46911;32.650;-16.902;2024-03-29T04:13:26;6.22;;;0.70;;
61025;SDS011;46911;32.650;-16.902;2024-03-29T04:15:27;8.18;;;1.15;;
61025;SDS011;46911;32.650;-16.902;2024-03-29T04:17:27;15.73;;;1.08;;
61025;SDS011;46911;32.650;-16.902;2024-03-29T04:19:32;8.75;;;1.00;;
61025;SDS011;46911;32.650;-16.902;2024-03-29T04:21:33;11.85;;;1.20;;
61025;SDS011;46911;32.650;-16.902;2024-03-29T04:23:34;5.70;;;0.98;;
61025;SDS011;46911;32.650;-16.902;2024-03-29T04:25:39;5.28;;;1.05;;
61025;SDS011;46911;32.650;-16.902;2024-03-29T04:27:40;11.93;;;1.40;;
61025;SDS011;46911;32.650;-16.902;2024-03-29T04:29:43;4.63;;;0.65;;
61025;SDS011;46911;32.650;-16.902;2024-03-29T04:31:45;4.35;;;0.82;;
61025;SDS011;46911;32.650;-16.902;2024-03-29T04:33:48;8.82;;;1.23;;
61025;SDS011;46911;32.650;-16.902;2024-03-29T04:36:01;7.65;;;0.98;;
61025;SDS011;46911;32.650;-16.902;2024-03-29T04:38:03;11.98;;;1.10;;
61025;SDS011;46911;32.650;-16.902;2024-03-29T04:40:04;8.57;;;1.10;;
61025;SDS011;46911;32.650;-16.902;2024-03-29T04:42:11;8.25;;;1.10;;
61025;SDS011;46911;32.650;-16.902;2024-03-29T04:44:13;6.05;;;1.67;;
61025;SDS011;46911;32.650;-16.902;2024-03-29T04:46:26;8.85;;;1.30;;
61025;SDS011;46911;32.650;-16.902;2024-03-29T04:48:29;9.82;;;1.08;;
61025;SDS011;46911;32.650;-16.902;2024-03-29T04:50:32;8.77;;;1.15;;
61025;SDS011;46911;32.650;-16.902;2024-03-29T04:52:32;8.88;;;1.30;;
61025;SDS011;46911;32.650;-16.902;2024-03-29T04:54:42;10.70;;;1.17;;
61025;SDS011;46911;32.650;-16.902;2024-03-29T04:56:45;7.32;;;1.27;;
61025;SDS011;46911;32.650;-16.902;2024-03-29T04:58:51;4.65;;;0.70;;
61025;SDS011;46911;32.650;-16.902;2024-03-29T05:00:55;7.78;;;1.20;;
61025;SDS011;46911;32.650;-16.902;2024-03-29T05:02:58;5.40;;;0.85;;
61025;SDS011;46911;32.650;-16.902;2024-03-29T05:04:59;7.75;;;0.90;;
61025;SDS011;46911;32.650;-16.902;2024-03-29T05:07:00;10.02;;;1.35;;
61025;SDS011;46911;32.650;-16.902;2024-03-29T05:09:03;9.60;;;1.10;;
61025;SDS011;46911;32.650;-16.902;2024-03-29T05:11:04;7.00;;;1.00;;
61025;SDS011;46911;32.650;-16.902;2024-03-29T05:13:05;10.27;;;1.30;;
61025;SDS011;46911;32.650;-16.902;2024-03-29T05:15:07;6.95;;;1.13;;
61025;SDS011;46911;32.650;-16.902;2024-03-29T05:17:10;5.03;;;0.90;;
61025;SDS011;46911;32.650;-16.902;2024-03-29T05:19:14;7.60;;;1.48;;
61025;SDS011;46911;32.650;-16.902;2024-03-29T05:21:15;8.48;;;1.40;;
61025;SDS011;46911;32.650;-16.902;2024-03-29T05:23:16;11.00;;;1.42;;
61025;SDS011;46911;32.650;-16.902;2024-03-29T05:25:17;11.32;;;1.30;;
61025;SDS011;46911;32.650;-16.902;2024-03-29T05:27:18;10.07;;;1.20;;
61025;SDS011;46911;32.650;-16.902;2024-03-29T05:29:19;6.72;;;1.02;;
61025;SDS011;46911;32.650;-16.902;2024-03-29T05:31:23;16.27;;;1.55;;
61025;SDS011;46911;32.650;-16.902;2024-03-29T05:33:24;15.40;;;1.20;;
61025;SDS011;46911;32.650;-16.902;2024-03-29T05:35:28;12.68;;;2.20;;
61025;SDS011;46911;32.650;-16.902;2024-03-29T05:37:29;14.73;;;1.40;;
61025;SDS011;46911;32.650;-16.902;2024-03-29T05:39:35;9.55;;;1.45;;
61025;SDS011;46911;32.650;-16.902;2024-03-29T05:41:36;7.88;;;1.33;;
61025;SDS011;46911;32.650;-16.902;2024-03-29T05:43:39;8.30;;;1.58;;
61025;SDS011;46911;32.650;-16.902;2024-03-29T05:45:40;12.10;;;1.83;;
61025;SDS011;46911;32.650;-16.902;2024-03-29T05:47:41;13.20;;;1.30;;
61025;SDS011;46911;32.650;-16.902;2024-03-29T05:49:42;8.52;;;1.70;;
61025;SDS011;46911;32.650;-16.902;2024-03-29T05:51:46;11.82;;;1.17;;
61025;SDS011;46911;32.650;-16.902;2024-03-29T05:53:53;15.23;;;1.23;;
61025;SDS011;46911;32.650;-16.902;2024-03-29T05:55:56;8.40;;;1.23;;
61025;SDS011;46911;32.650;-16.902;2024-03-29T05:57:57;14.85;;;1.33;;
61025;SDS011;46911;32.650;-16.902;2024-03-29T06:00:01;23.80;;;1.40;;
61025;SDS011;46911;32.650;-16.902;2024-03-29T06:02:05;14.52;;;1.27;;
61025;SDS011;46911;32.650;-16.902;2024-03-29T06:04:11;12.13;;;1.23;;
61025;SDS011;46911;32.650;-16.902;2024-03-29T06:06:19;9.07;;;1.17;;
61025;SDS011;46911;32.650;-16.902;2024-03-29T06:08:25;8.32;;;1.38;;
61025;SDS011;46911;32.650;-16.902;2024-03-29T06:10:30;12.15;;;1.40;;
61025;SDS011;46911;32.650;-16.902;2024-03-29T06:12:36;13.10;;;1.40;;
61025;SDS011;46911;32.650;-16.902;2024-03-29T06:14:40;12.30;;;1.70;;
61025;SDS011;46911;32.650;-16.902;2024-03-29T06:16:59;12.77;;;1.60;;
61025;SDS011;46911;32.650;-16.902;2024-03-29T06:19:22;10.35;;;1.63;;
61025;SDS011;46911;32.650;-16.902;2024-03-29T06:21:27;17.00;;;1.83;;
61025;SDS011;46911;32.650;-16.902;2024-03-29T06:23:32;13.20;;;1.67;;
61025;SDS011;46911;32.650;-16.902;2024-03-29T06:25:36;13.07;;;1.60;;
61025;SDS011;46911;32.650;-16.902;2024-03-29T06:27:39;7.00;;;1.10;;
61025;SDS011;46911;32.650;-16.902;2024-03-29T06:29:40;14.40;;;2.20;;
61025;SDS011;46911;32.650;-16.902;2024-03-29T06:31:41;14.13;;;1.67;;
61025;SDS011;46911;32.650;-16.902;2024-03-29T06:33:45;19.63;;;3.85;;
61025;SDS011;46911;32.650;-16.902;2024-03-29T06:35:52;11.88;;;1.65;;
61025;SDS011;46911;32.650;-16.902;2024-03-29T06:37:54;10.35;;;1.50;;
61025;SDS011;46911;32.650;-16.902;2024-03-29T06:39:58;9.73;;;1.17;;
61025;SDS011;46911;32.650;-16.902;2024-03-29T06:41:59;20.83;;;1.55;;
61025;SDS011;46911;32.650;-16.902;2024-03-29T06:44:02;13.68;;;1.42;;
61025;SDS011;46911;32.650;-16.902;2024-03-29T06:46:03;8.95;;;1.52;;
61025;SDS011;46911;32.650;-16.902;2024-03-29T06:48:05;6.75;;;1.27;;
61025;SDS011;46911;32.650;-16.902;2024-03-29T06:50:06;10.73;;;2.45;;
61025;SDS011;46911;32.650;-16.902;2024-03-29T06:52:12;16.17;;;1.58;;
61025;SDS011;46911;32.650;-16.902;2024-03-29T06:54:15;10.43;;;1.20;;
61025;SDS011;46911;32.650;-16.902;2024-03-29T06:56:16;13.30;;;1.27;;
61025;SDS011;46911;32.650;-16.902;2024-03-29T06:58:17;7.47;;;1.13;;
61025;SDS011;46911;32.650;-16.902;2024-03-29T07:00:18;7.38;;;1.30;;
61025;SDS011;46911;32.650;-16.902;2024-03-29T07:02:19;5.80;;;1.30;;
61025;SDS011;46911;32.650;-16.902;2024-03-29T07:04:21;8.15;;;1.45;;
61025;SDS011;46911;32.650;-16.902;2024-03-29T07:06:25;6.85;;;1.10;;
61025;SDS011;46911;32.650;-16.902;2024-03-29T07:08:26;8.90;;;1.45;;
61025;SDS011;46911;32.650;-16.902;2024-03-29T07:10:30;11.02;;;2.83;;
61025;SDS011;46911;32.650;-16.902;2024-03-29T07:12:35;9.90;;;1.30;;
61025;SDS011;46911;32.650;-16.902;2024-03-29T07:14:36;6.03;;;1.00;;
61025;SDS011;46911;32.650;-16.902;2024-03-29T07:16:37;10.65;;;1.50;;
61025;SDS011;46911;32.650;-16.902;2024-03-29T07:18:41;7.00;;;1.38;;
61025;SDS011;46911;32.650;-16.902;2024-03-29T07:20:45;12.30;;;1.65;;
61025;SDS011;46911;32.650;-16.902;2024-03-29T07:22:46;7.22;;;1.15;;
61025;SDS011;46911;32.650;-16.902;2024-03-29T07:24:50;5.28;;;1.20;;
61025;SDS011;46911;32.650;-16.902;2024-03-29T07:26:53;9.63;;;1.05;;
61025;SDS011;46911;32.650;-16.902;2024-03-29T07:28:54;12.15;;;1.40;;
61025;SDS011;46911;32.650;-16.902;2024-03-29T07:30:55;5.38;;;0.93;;
61025;SDS011;46911;32.650;-16.902;2024-03-29T07:33:01;7.85;;;1.42;;
61025;SDS011;46911;32.650;-16.902;2024-03-29T07:35:05;10.02;;;1.35;;
61025;SDS011;46911;32.650;-16.902;2024-03-29T07:37:09;6.57;;;1.13;;
61025;SDS011;46911;32.650;-16.902;2024-03-29T07:39:15;3.75;;;0.98;;
61025;SDS011;46911;32.650;-16.902;2024-03-29T07:41:18;8.50;;;1.30;;
61025;SDS011;46911;32.650;-16.902;2024-03-29T07:43:21;2.78;;;0.90;;
61025;SDS011;46911;32.650;-16.902;2024-03-29T07:45:25;6.05;;;1.23;;
61025;SDS011;46911;32.650;-16.902;2024-03-29T07:47:28;4.18;;;0.77;;
61025;SDS011;46911;32.650;-16.902;2024-03-29T07:49:32;4.75;;;0.95;;
61025;SDS011;46911;32.650;-16.902;2024-03-29T07:51:32;3.67;;;0.93;;
61025;SDS011;46911;32.650;-16.902;2024-03-29T07:53:36;6.20;;;1.67;;
61025;SDS011;46911;32.650;-16.902;2024-03-29T07:55:39;7.22;;;1.10;;
61025;SDS011;46911;32.650;-16.902;2024-03-29T07:57:43;3.72;;;0.90;;
61025;SDS011;46911;32.650;-16.902;2024-03-29T07:59:46;4.82;;;0.90;;
61025;SDS011;46911;32.650;-16.902;2024-03-29T08:01:48;4.00;;;1.00;;
61025;SDS011;46911;32.650;-16.902;2024-03-29T08:03:52;6.45;;;0.95;;
61025;SDS011;46911;32.650;-16.902;2024-03-29T08:05:56;4.43;;;1.05;;
61025;SDS011;46911;32.650;-16.902;2024-03-29T08:07:58;4.45;;;0.95;;
61025;SDS011;46911;32.650;-16.902;2024-03-29T08:10:03;6.72;;;0.98;;
61025;SDS011;46911;32.650;-16.902;2024-03-29T08:12:04;4.78;;;0.80;;
61025;SDS011;46911;32.650;-16.902;2024-03-29T08:14:06;4.30;;;0.90;;
61025;SDS011;46911;32.650;-16.902;2024-03-29T08:16:08;9.23;;;0.98;;
61025;SDS011;46911;32.650;-16.902;2024-03-29T08:18:09;2.25;;;0.68;;
61025;SDS011;46911;32.650;-16.902;2024-03-29T08:20:10;6.20;;;1.30;;
61025;SDS011;46911;32.650;-16.902;2024-03-29T08:22:11;6.18;;;1.20;;
61025;SDS011;46911;32.650;-16.902;2024-03-29T08:24:12;2.95;;;0.80;;
61025;SDS011;46911;32.650;-16.902;2024-03-29T08:26:16;6.50;;;0.90;;
61025;SDS011;46911;32.650;-16.902;2024-03-29T08:28:20;2.42;;;1.00;;
61025;SDS011;46911;32.650;-16.902;2024-03-29T08:30:25;3.20;;;0.63;;
61025;SDS011;46911;32.650;-16.902;2024-03-29T08:32:35;7.07;;;1.02;;
61025;SDS011;46911;32.650;-16.902;2024-03-29T08:34:40;6.55;;;1.00;;
61025;SDS011;46911;32.650;-16.902;2024-03-29T08:36:41;3.67;;;0.68;;
61025;SDS011;46911;32.650;-16.902;2024-03-29T08:38:47;6.18;;;0.95;;
61025;SDS011;46911;32.650;-16.902;2024-03-29T08:40:53;1.00;;;0.50;;
61025;SDS011;46911;32.650;-16.902;2024-03-29T08:42:55;9.30;;;1.42;;
61025;SDS011;46911;32.650;-16.902;2024-03-29T08:45:00;3.83;;;0.80;;
61025;SDS011;46911;32.650;-16.902;2024-03-29T08:47:05;7.15;;;1.05;;
61025;SDS011;46911;32.650;-16.902;2024-03-29T08:49:14;4.55;;;0.93;;
61025;SDS011;46911;32.650;-16.902;2024-03-29T08:51:16;2.97;;;0.77;;
61025;SDS011;46911;32.650;-16.902;2024-03-29T08:53:17;5.47;;;0.50;;
61025;SDS011;46911;32.650;-16.902;2024-03-29T08:55:18;1.05;;;0.50;;
61025;SDS011;46911;32.650;-16.902;2024-03-29T08:57:19;2.30;;;0.70;;
61025;SDS011;46911;32.650;-16.902;2024-03-29T08:59:23;2.65;;;0.60;;
61025;SDS011;46911;32.650;-16.902;2024-03-29T09:01:24;3.67;;;0.90;;
61025;SDS011;46911;32.650;-16.902;2024-03-29T09:03:25;1.30;;;0.52;;
61025;SDS011;46911;32.650;-16.902;2024-03-29T09:05:28;3.88;;;0.93;;
61025;SDS011;46911;32.650;-16.902;2024-03-29T09:07:29;2.33;;;0.60;;
61025;SDS011;46911;32.650;-16.902;2024-03-29T09:09:31;1.98;;;0.68;;
61025;SDS011;46911;32.650;-16.902;2024-03-29T09:11:32;1.95;;;0.63;;
61025;SDS011;46911;32.650;-16.902;2024-03-29T09:13:33;1.17;;;0.40;;
61025;SDS011;46911;32.650;-16.902;2024-03-29T09:15:34;2.42;;;0.60;;
61025;SDS011;46911;32.650;-16.902;2024-03-29T09:17:35;2.33;;;0.47;;
61025;SDS011;46911;32.650;-16.902;2024-03-29T09:19:39;4.47;;;0.70;;
61025;SDS011;46911;32.650;-16.902;2024-03-29T09:21:40;1.33;;;0.60;;
61025;SDS011;46911;32.650;-16.902;2024-03-29T09:23:45;4.47;;;0.80;;
61025;SDS011;46911;32.650;-16.902;2024-03-29T09:25:49;12.35;;;1.40;;
61025;SDS011;46911;32.650;-16.902;2024-03-29T09:27:52;3.70;;;1.05;;
61025;SDS011;46911;32.650;-16.902;2024-03-29T09:29:56;8.40;;;1.30;;
61025;SDS011;46911;32.650;-16.902;2024-03-29T09:31:59;14.75;;;1.83;;
61025;SDS011;46911;32.650;-16.902;2024-03-29T09:34:02;10.20;;;1.83;;
61025;SDS011;46911;32.650;-16.902;2024-03-29T09:36:08;7.35;;;1.60;;
61025;SDS011;46911;32.650;-16.902;2024-03-29T09:38:14;13.85;;;1.95;;
61025;SDS011;46911;32.650;-16.902;2024-03-29T09:40:18;11.52;;;2.00;;
61025;SDS011;46911;32.650;-16.902;2024-03-29T09:42:21;11.45;;;1.90;;
61025;SDS011;46911;32.650;-16.902;2024-03-29T09:44:25;18.52;;;2.22;;
61025;SDS011;46911;32.650;-16.902;2024-03-29T09:46:37;10.52;;;1.48;;
61025;SDS011;46911;32.650;-16.902;2024-03-29T09:50:50;10.00;;;1.73;;
61025;SDS011;46911;32.650;-16.902;2024-03-29T09:52:56;16.65;;;2.30;;
61025;SDS011;46911;32.650;-16.902;2024-03-29T09:55:03;16.95;;;1.98;;
61025;SDS011;46911;32.650;-16.902;2024-03-29T09:57:05;14.13;;;2.30;;
61025;SDS011;46911;32.650;-16.902;2024-03-29T09:59:08;13.38;;;2.25;;
61025;SDS011;46911;32.650;-16.902;2024-03-29T10:01:11;16.55;;;2.63;;
61025;SDS011;46911;32.650;-16.902;2024-03-29T10:03:13;9.85;;;1.80;;
61025;SDS011;46911;32.650;-16.902;2024-03-29T10:05:19;15.02;;;2.10;;
61025;SDS011;46911;32.650;-16.902;2024-03-29T10:07:22;12.60;;;2.30;;
61025;SDS011;46911;32.650;-16.902;2024-03-29T10:09:27;12.57;;;2.08;;
61025;SDS011;46911;32.650;-16.902;2024-03-29T10:11:32;8.68;;;1.98;;
61025;SDS011;46911;32.650;-16.902;2024-03-29T10:13:35;13.90;;;2.13;;
61025;SDS011;46911;32.650;-16.902;2024-03-29T10:15:38;11.68;;;1.95;;
61025;SDS011;46911;32.650;-16.902;2024-03-29T10:17:46;7.78;;;1.83;;
61025;SDS011;46911;32.650;-16.902;2024-03-29T10:19:49;9.00;;;2.10;;
61025;SDS011;46911;32.650;-16.902;2024-03-29T10:21:50;14.65;;;2.00;;
61025;SDS011;46911;32.650;-16.902;2024-03-29T10:23:54;8.20;;;1.67;;
61025;SDS011;46911;32.650;-16.902;2024-03-29T10:25:55;15.52;;;2.33;;
61025;SDS011;46911;32.650;-16.902;2024-03-29T10:27:56;12.45;;;2.13;;
61025;SDS011;46911;32.650;-16.902;2024-03-29T10:29:57;12.02;;;2.28;;
61025;SDS011;46911;32.650;-16.902;2024-03-29T10:32:05;12.30;;;2.30;;
61025;SDS011;46911;32.650;-16.902;2024-03-29T10:34:07;12.27;;;2.60;;
61025;SDS011;46911;32.650;-16.902;2024-03-29T10:36:14;14.50;;;2.80;;
61025;SDS011;46911;32.650;-16.902;2024-03-29T10:38:20;19.55;;;3.20;;
61025;SDS011;46911;32.650;-16.902;2024-03-29T10:40:26;18.23;;;3.28;;
61025;SDS011;46911;32.650;-16.902;2024-03-29T10:42:29;29.15;;;3.80;;
61025;SDS011;46911;32.650;-16.902;2024-03-29T10:44:33;27.15;;;3.20;;
61025;SDS011;46911;32.650;-16.902;2024-03-29T10:46:38;22.15;;;3.67;;
61025;SDS011;46911;32.650;-16.902;2024-03-29T10:48:45;26.08;;;3.80;;
61025;SDS011;46911;32.650;-16.902;2024-03-29T10:50:48;25.10;;;3.22;;
61025;SDS011;46911;32.650;-16.902;2024-03-29T10:52:53;18.90;;;3.70;;
61025;SDS011;46911;32.650;-16.902;2024-03-29T10:54:55;19.75;;;3.58;;
61025;SDS011;46911;32.650;-16.902;2024-03-29T10:56:59;23.10;;;3.47;;
61025;SDS011;46911;32.650;-16.902;2024-03-29T10:59:28;29.48;;;5.05;;
61025;SDS011;46911;32.650;-16.902;2024-03-29T11:01:44;20.85;;;4.35;;
61025;SDS011;46911;32.650;-16.902;2024-03-29T11:03:53;16.75;;;3.75;;
61025;SDS011;46911;32.650;-16.902;2024-03-29T11:06:00;18.27;;;3.67;;
61025;SDS011;46911;32.650;-16.902;2024-03-29T11:08:05;18.67;;;3.35;;
61025;SDS011;46911;32.650;-16.902;2024-03-29T11:12:29;14.02;;;2.80;;
61025;SDS011;46911;32.650;-16.902;2024-03-29T11:14:39;28.25;;;3.90;;
61025;SDS011;46911;32.650;-16.902;2024-03-29T11:16:43;13.75;;;3.33;;
61025;SDS011;46911;32.650;-16.902;2024-03-29T11:18:45;17.73;;;3.50;;
61025;SDS011;46911;32.650;-16.902;2024-03-29T11:20:50;16.80;;;3.85;;
61025;SDS011;46911;32.650;-16.902;2024-03-29T11:22:52;12.85;;;2.53;;
61025;SDS011;46911;32.650;-16.902;2024-03-29T11:25:00;6.72;;;1.92;;
61025;SDS011;46911;32.650;-16.902;2024-03-29T11:27:07;9.95;;;1.83;;
61025;SDS011;46911;32.650;-16.902;2024-03-29T11:29:17;5.80;;;1.50;;
61025;SDS011;46911;32.650;-16.902;2024-03-29T11:31:23;6.03;;;1.63;;
61025;SDS011;46911;32.650;-16.902;2024-03-29T11:35:47;5.78;;;1.42;;
61025;SDS011;46911;32.650;-16.902;2024-03-29T11:37:55;7.93;;;1.73;;
61025;SDS011;46911;32.650;-16.902;2024-03-29T11:40:03;5.93;;;1.63;;
61025;SDS011;46911;32.650;-16.902;2024-03-29T11:42:07;3.60;;;1.15;;
61025;SDS011;46911;32.650;-16.902;2024-03-29T11:44:15;6.97;;;1.52;;
61025;SDS011;46911;32.650;-16.902;2024-03-29T11:46:17;6.88;;;1.52;;
61025;SDS011;46911;32.650;-16.902;2024-03-29T11:48:22;9.63;;;1.65;;
61025;SDS011;46911;32.650;-16.902;2024-03-29T11:50:26;9.57;;;1.58;;
61025;SDS011;46911;32.650;-16.902;2024-03-29T11:52:27;7.45;;;1.90;;
61025;SDS011;46911;32.650;-16.902;2024-03-29T11:54:37;6.40;;;1.55;;
61025;SDS011;46911;32.650;-16.902;2024-03-29T11:56:39;5.93;;;1.63;;
61025;SDS011;46911;32.650;-16.902;2024-03-29T11:58:42;9.82;;;1.70;;
61025;SDS011;46911;32.650;-16.902;2024-03-29T12:00:44;10.57;;;1.98;;
61025;SDS011;46911;32.650;-16.902;2024-03-29T12:02:48;7.07;;;1.52;;
61025;SDS011;46911;32.650;-16.902;2024-03-29T12:04:53;6.18;;;1.92;;
61025;SDS011;46911;32.650;-16.902;2024-03-29T12:06:57;11.18;;;2.08;;